createdAt,value
2019-03-20T00:01:58.463Z,70.60
2019-03-20T00:04:28.042Z,70.40
2019-03-20T00:06:56.976Z,70.30
2019-03-20T00:09:26.009Z,70.40
2019-03-20T00:11:55.039Z,70.50
2019-03-20T00:14:24.214Z,70.60
2019-03-20T00:16:53.416Z,70.90
2019-03-20T00:19:22.940Z,70.00
2019-03-20T00:21:52.000Z,70.20
2019-03-20T00:24:20.992Z,70.00
2019-03-20T00:26:49.983Z,70.00
2019-03-20T00:29:20.849Z,69.80
2019-03-20T00:31:49.825Z,69.60
2019-03-20T00:34:19.137Z,70.00
2019-03-20T00:36:48.088Z,69.90
2019-03-20T00:39:17.119Z,70.10
2019-03-20T00:41:46.158Z,70.10
2019-03-20T00:44:15.131Z,70.30
2019-03-20T00:46:44.041Z,70.20
2019-03-20T00:49:13.145Z,70.20
2019-03-20T00:51:42.280Z,70.10
2019-03-20T00:54:11.402Z,70.30
2019-03-20T00:56:40.438Z,70.30
2019-03-20T00:59:09.429Z,70.10
2019-03-20T01:01:38.289Z,70.00
2019-03-20T01:04:07.153Z,70.10
2019-03-20T01:06:36.121Z,69.90
2019-03-20T01:09:06.837Z,69.90
2019-03-20T01:11:35.725Z,69.70
2019-03-20T01:14:04.890Z,69.90
2019-03-20T01:16:33.871Z,69.90
2019-03-20T01:19:02.834Z,70.20
2019-03-20T01:21:31.789Z,69.90
2019-03-20T01:24:00.926Z,70.10
2019-03-20T01:26:29.843Z,70.00
2019-03-20T01:28:58.881Z,70.30
2019-03-20T01:31:27.954Z,70.50
2019-03-20T01:33:57.079Z,70.50
2019-03-20T01:36:26.012Z,70.50
2019-03-20T01:38:54.976Z,70.20
2019-03-20T01:41:24.148Z,70.30
2019-03-20T01:43:53.191Z,70.30
2019-03-20T01:46:22.036Z,70.40
2019-03-20T01:48:50.980Z,70.40
2019-03-20T01:51:21.279Z,70.60
2019-03-20T01:53:50.263Z,70.60
2019-03-20T01:56:19.495Z,70.60
2019-03-20T01:58:48.694Z,70.70
2019-03-20T02:01:17.847Z,70.90
2019-03-20T02:03:46.949Z,71.40
2019-03-20T02:06:15.997Z,71.60
2019-03-20T02:08:44.940Z,71.80
2019-03-20T02:11:13.817Z,71.70
2019-03-20T02:13:42.881Z,71.80
2019-03-20T02:16:11.811Z,71.70
2019-03-20T02:18:40.779Z,71.70
2019-03-20T02:21:09.683Z,71.50
2019-03-20T02:23:38.555Z,71.80
2019-03-20T02:26:07.619Z,71.90
2019-03-20T02:28:36.744Z,72.00
2019-03-20T02:31:05.893Z,72.10
2019-03-20T02:33:35.317Z,72.10
2019-03-20T02:36:04.493Z,72.00
2019-03-20T02:38:33.824Z,71.90
2019-03-20T02:41:02.775Z,72.00
2019-03-20T02:43:31.675Z,73.00
2019-03-20T02:46:00.758Z,72.10
2019-03-20T02:48:29.720Z,72.00
2019-03-20T02:50:58.699Z,72.20
2019-03-20T02:53:27.603Z,72.50
2019-03-20T02:55:56.585Z,72.20
2019-03-20T02:58:25.598Z,72.40
2019-03-20T03:00:54.838Z,72.50
2019-03-20T03:03:24.031Z,72.40
2019-03-20T03:06:05.987Z,72.40
2019-03-20T03:08:23.871Z,72.50
2019-03-20T03:10:55.582Z,72.20
2019-03-20T03:13:23.438Z,72.40
2019-03-20T03:15:52.360Z,72.50
2019-03-20T03:18:21.281Z,72.80
2019-03-20T03:20:50.263Z,72.80
2019-03-20T03:23:19.119Z,72.90
2019-03-20T03:25:50.201Z,73.20
2019-03-20T03:28:19.333Z,73.20
2019-03-20T03:30:48.422Z,73.00
2019-03-20T03:33:17.341Z,73.00
2019-03-20T03:35:46.303Z,73.20
2019-03-20T03:38:15.497Z,73.50
2019-03-20T03:40:44.611Z,73.20
2019-03-20T03:43:13.558Z,73.40
2019-03-20T03:45:42.804Z,73.30
2019-03-20T03:48:11.668Z,73.30
2019-03-20T03:50:40.876Z,73.30
2019-03-20T03:53:10.050Z,73.50
2019-03-20T03:55:39.126Z,73.50
2019-03-20T03:58:08.755Z,73.40
2019-03-20T04:00:37.776Z,73.30
2019-03-20T04:03:06.871Z,73.20
2019-03-20T04:05:36.021Z,73.30
2019-03-20T04:08:05.061Z,73.20
2019-03-20T04:10:34.075Z,73.30
2019-03-20T04:13:10.597Z,73.50
2019-03-20T04:15:39.788Z,73.20
2019-03-20T04:18:09.034Z,74.50
2019-03-20T04:20:38.055Z,73.60
2019-03-20T04:23:07.349Z,73.70
2019-03-20T04:25:36.517Z,74.10
2019-03-20T04:28:05.574Z,74.20
2019-03-20T04:30:34.532Z,74.10
2019-03-20T04:33:03.486Z,74.20
2019-03-20T04:35:32.559Z,74.20
2019-03-20T04:38:01.801Z,74.20
2019-03-20T04:40:30.792Z,74.10
2019-03-20T04:43:00.051Z,74.40
2019-03-20T04:45:29.854Z,74.60
2019-03-20T04:47:58.875Z,74.70
2019-03-20T04:50:28.116Z,74.60
2019-03-20T04:52:57.260Z,74.70
2019-03-20T04:55:26.208Z,74.90
2019-03-20T04:57:55.096Z,75.10
2019-03-20T05:00:24.173Z,75.00
2019-03-20T05:02:53.236Z,75.20
2019-03-20T05:05:22.224Z,75.20
2019-03-20T05:07:51.156Z,75.20
2019-03-20T05:10:20.140Z,75.20
2019-03-20T05:12:49.388Z,75.30
2019-03-20T05:15:18.459Z,75.50
2019-03-20T05:17:47.905Z,75.80
2019-03-20T05:20:16.900Z,76.50
2019-03-20T05:22:46.099Z,75.80
2019-03-20T05:25:15.233Z,75.80
2019-03-20T05:27:44.520Z,75.80
2019-03-20T05:30:13.701Z,75.80
2019-03-20T05:32:42.636Z,75.80
2019-03-20T05:35:11.915Z,76.00
2019-03-20T05:37:40.811Z,76.00
2019-03-20T05:40:13.213Z,75.90
2019-03-20T05:42:42.244Z,76.20
2019-03-20T05:45:17.103Z,76.20
2019-03-20T05:47:46.229Z,75.90
2019-03-20T05:50:17.937Z,76.50
2019-03-20T05:52:47.144Z,76.50
2019-03-20T05:55:16.430Z,76.60
2019-03-20T05:57:45.615Z,77.70
2019-03-20T06:00:15.597Z,77.20
2019-03-20T06:02:44.545Z,77.00
2019-03-20T06:05:13.697Z,76.90
2019-03-20T06:07:42.547Z,77.50
2019-03-20T06:10:20.724Z,78.10
2019-03-20T06:12:51.865Z,77.80
2019-03-20T06:15:21.001Z,77.30
2019-03-20T06:17:49.922Z,77.20
2019-03-20T06:20:19.203Z,77.20
2019-03-20T06:22:48.271Z,77.20
2019-03-20T06:25:20.917Z,77.40
2019-03-20T06:27:48.351Z,77.10
2019-03-20T06:30:17.384Z,77.20
2019-03-20T06:32:46.343Z,77.30
2019-03-20T06:35:15.434Z,77.50
2019-03-20T06:37:44.408Z,77.60
2019-03-20T06:40:14.058Z,77.70
2019-03-20T06:42:43.072Z,77.60
2019-03-20T06:45:12.593Z,77.70
2019-03-20T06:47:41.757Z,77.40
2019-03-20T06:50:16.476Z,77.10
2019-03-20T06:52:45.556Z,77.80
2019-03-20T06:55:15.081Z,77.90
2019-03-20T06:57:44.108Z,77.80
2019-03-20T07:00:52.583Z,77.90
2019-03-20T07:03:44.048Z,77.90
2019-03-20T07:06:45.307Z,77.70
2019-03-20T07:09:33.553Z,77.30
2019-03-20T07:12:02.548Z,77.60
2019-03-20T07:14:31.529Z,77.50
2019-03-20T07:17:00.490Z,77.70
2019-03-20T07:19:29.579Z,77.50
2019-03-20T07:21:58.577Z,77.60
2019-03-20T07:24:27.607Z,77.40
2019-03-20T07:26:56.577Z,77.20
2019-03-20T07:29:26.550Z,76.80
2019-03-20T07:31:55.810Z,76.50
2019-03-20T07:34:25.169Z,76.30
2019-03-20T07:36:54.220Z,76.10
2019-03-20T07:39:23.399Z,75.80
2019-03-20T07:41:52.465Z,76.20
2019-03-20T07:44:21.789Z,75.60
2019-03-20T07:46:50.912Z,75.20
2019-03-20T07:49:19.991Z,74.80
2019-03-20T07:51:49.318Z,75.00
2019-03-20T07:54:18.629Z,74.90
2019-03-20T07:56:47.896Z,74.80
2019-03-20T07:59:17.013Z,74.80
2019-03-20T08:01:46.111Z,74.90
2019-03-20T08:04:15.469Z,74.30
2019-03-20T08:06:44.535Z,73.90
2019-03-20T08:09:13.683Z,73.20
2019-03-20T08:11:42.845Z,72.60
2019-03-20T08:14:11.945Z,73.20
2019-03-20T08:16:41.242Z,73.00
2019-03-20T08:19:10.743Z,72.00
2019-03-20T08:21:40.263Z,72.30
2019-03-20T08:24:09.318Z,72.40
2019-03-20T08:26:38.472Z,72.40
2019-03-20T08:29:07.672Z,71.20
2019-03-20T08:31:36.594Z,71.30
2019-03-20T08:34:05.949Z,70.00
2019-03-20T08:36:35.395Z,70.10
2019-03-20T08:39:06.493Z,70.60
2019-03-20T08:41:35.979Z,70.00
2019-03-20T08:44:05.422Z,70.60
2019-03-20T08:46:34.628Z,69.00
2019-03-20T08:49:04.841Z,69.30
2019-03-20T08:51:33.924Z,69.10
2019-03-20T08:54:02.964Z,68.90
2019-03-20T08:56:32.118Z,67.40
2019-03-20T08:59:01.308Z,67.60
2019-03-20T09:01:30.606Z,67.10
2019-03-20T09:04:00.169Z,66.90
2019-03-20T09:06:29.469Z,67.00
2019-03-20T09:08:58.461Z,66.80
2019-03-20T09:11:27.601Z,66.00
2019-03-20T09:13:56.646Z,65.90
2019-03-20T09:16:25.916Z,66.90
2019-03-20T09:18:55.095Z,67.00
2019-03-20T09:21:24.246Z,65.30
2019-03-20T09:23:53.378Z,65.10
2019-03-20T09:26:22.532Z,65.60
2019-03-20T09:28:52.141Z,66.40
2019-03-20T09:31:21.277Z,65.90
2019-03-20T09:33:51.943Z,65.40
2019-03-20T09:36:27.071Z,65.80
2019-03-20T09:38:56.209Z,64.30
2019-03-20T09:41:25.411Z,64.80
2019-03-20T09:43:54.468Z,65.60
2019-03-20T09:46:24.339Z,65.70
2019-03-20T09:48:53.959Z,65.00
2019-03-20T09:51:23.173Z,64.60
2019-03-20T09:53:52.412Z,64.10
2019-03-20T09:56:21.738Z,64.10
2019-03-20T09:58:50.864Z,64.30
2019-03-20T10:01:19.981Z,64.20
2019-03-20T10:03:49.171Z,64.90
2019-03-20T10:06:18.512Z,63.70
2019-03-20T10:08:54.107Z,63.60
2019-03-20T10:11:18.510Z,64.00
2019-03-20T10:13:47.790Z,63.30
2019-03-20T10:16:17.096Z,63.90
2019-03-20T10:18:46.148Z,64.40
2019-03-20T10:21:15.312Z,64.20
2019-03-20T10:23:44.424Z,64.80
2019-03-20T10:26:13.757Z,64.80
2019-03-20T10:28:42.950Z,65.00
2019-03-20T10:31:12.128Z,64.60
2019-03-20T10:33:41.706Z,64.50
2019-03-20T10:36:11.070Z,64.70
2019-03-20T10:38:40.347Z,65.30
2019-03-20T10:41:09.608Z,65.10
2019-03-20T10:43:39.312Z,65.70
2019-03-20T10:46:08.668Z,65.00
2019-03-20T10:48:38.594Z,64.80
2019-03-20T10:51:07.914Z,64.80
2019-03-20T10:53:37.091Z,64.50
2019-03-20T10:56:06.515Z,65.00
2019-03-20T10:58:35.940Z,64.40
2019-03-20T11:01:05.566Z,64.40
2019-03-20T11:03:34.759Z,64.20
2019-03-20T11:06:08.346Z,63.80
2019-03-20T11:08:37.559Z,63.30
2019-03-20T11:11:06.709Z,62.90
2019-03-20T11:13:36.009Z,62.70
2019-03-20T11:16:07.462Z,62.80
2019-03-20T11:18:36.561Z,63.20
2019-03-20T11:21:10.271Z,63.40
2019-03-20T11:23:39.799Z,63.00
2019-03-20T11:26:08.865Z,63.10
2019-03-20T11:28:38.329Z,63.10
2019-03-20T11:31:07.480Z,63.50
2019-03-20T11:33:36.555Z,63.40
2019-03-20T11:36:06.350Z,63.40
2019-03-20T11:38:44.001Z,63.20
2019-03-20T11:41:24.069Z,63.20
2019-03-20T11:43:53.182Z,62.90
2019-03-20T11:46:22.285Z,62.70
2019-03-20T11:48:51.317Z,62.10
2019-03-20T11:51:20.459Z,61.40
2019-03-20T11:53:49.535Z,61.80
2019-03-20T11:56:18.704Z,62.00
2019-03-20T11:58:47.707Z,61.90
2019-03-20T12:01:17.038Z,61.70
2019-03-20T12:03:46.175Z,61.10
2019-03-20T12:06:15.444Z,61.00
2019-03-20T12:08:45.123Z,61.50
2019-03-20T12:11:15.892Z,61.20
2019-03-20T12:13:45.083Z,61.20
2019-03-20T12:16:14.423Z,60.90
2019-03-20T12:18:43.597Z,60.40
2019-03-20T12:21:12.796Z,60.60
2019-03-20T12:23:41.888Z,60.80
2019-03-20T12:26:11.121Z,61.30
2019-03-20T12:28:40.674Z,61.00
2019-03-20T12:31:09.889Z,60.80
2019-03-20T12:33:42.324Z,60.60
2019-03-20T12:36:11.495Z,60.90
2019-03-20T12:38:40.633Z,60.30
2019-03-20T12:41:09.969Z,60.00
2019-03-20T12:43:39.451Z,59.80
2019-03-20T12:46:08.695Z,59.60
2019-03-20T12:48:38.052Z,59.70
2019-03-20T12:51:07.236Z,59.70
2019-03-20T12:53:36.950Z,59.80
2019-03-20T12:56:06.107Z,60.10
2019-03-20T12:58:35.177Z,60.30
2019-03-20T13:01:06.129Z,60.00
2019-03-20T13:03:35.171Z,60.00
2019-03-20T13:06:04.616Z,60.20
2019-03-20T13:08:33.769Z,59.70
2019-03-20T13:11:02.935Z,59.80
2019-03-20T13:13:31.977Z,59.30
2019-03-20T13:16:01.159Z,59.30
2019-03-20T13:18:30.276Z,59.70
2019-03-20T13:20:59.505Z,59.50
2019-03-20T13:23:31.249Z,59.40
2019-03-20T13:26:00.959Z,59.30
2019-03-20T13:28:30.460Z,59.40
2019-03-20T13:31:02.688Z,59.10
2019-03-20T13:33:31.767Z,59.20
2019-03-20T13:36:01.065Z,58.80
2019-03-20T13:38:30.398Z,58.80
2019-03-20T13:40:59.629Z,59.00
2019-03-20T13:43:28.707Z,59.50
2019-03-20T13:45:58.131Z,59.60
2019-03-20T13:48:27.306Z,60.00
2019-03-20T13:50:56.727Z,60.30
2019-03-20T13:53:25.811Z,60.40
2019-03-20T13:55:54.960Z,60.60
2019-03-20T13:58:24.182Z,60.20
2019-03-20T14:00:53.343Z,60.60
2019-03-20T14:03:22.569Z,60.30
2019-03-20T14:05:51.702Z,60.50
2019-03-20T14:08:23.757Z,60.50
2019-03-20T14:10:52.998Z,60.30
2019-03-20T14:13:22.279Z,60.20
2019-03-20T14:15:51.493Z,59.90
2019-03-20T14:18:20.618Z,59.90
2019-03-20T14:20:49.756Z,59.90
2019-03-20T14:23:18.941Z,59.90
2019-03-20T14:25:48.360Z,59.80
2019-03-20T14:28:17.508Z,59.50
2019-03-20T14:30:46.659Z,59.70
2019-03-20T14:33:15.899Z,59.80
2019-03-20T14:35:45.433Z,59.50
2019-03-20T14:38:14.552Z,59.20
2019-03-20T14:40:43.771Z,59.30
2019-03-20T14:43:12.974Z,59.30
2019-03-20T14:45:42.269Z,59.10
2019-03-20T14:48:11.304Z,59.20
2019-03-20T14:50:40.808Z,59.20
2019-03-20T14:53:09.863Z,59.00
2019-03-20T14:55:38.860Z,58.90
2019-03-20T14:58:09.633Z,58.90
2019-03-20T15:00:38.854Z,59.40
2019-03-20T15:03:08.040Z,58.70
2019-03-20T15:05:41.622Z,57.90
2019-03-20T15:08:11.844Z,57.70
2019-03-20T15:10:45.883Z,57.70
2019-03-20T15:13:13.259Z,57.10
2019-03-20T15:15:57.500Z,57.20
2019-03-20T15:18:30.184Z,57.20
2019-03-20T15:20:59.489Z,57.20
2019-03-20T15:23:28.605Z,57.10
2019-03-20T15:25:58.292Z,57.30
2019-03-20T15:28:27.640Z,57.30
2019-03-20T15:30:56.755Z,57.50
2019-03-20T15:33:26.566Z,57.90
2019-03-20T15:35:59.067Z,57.10
2019-03-20T15:38:28.575Z,57.30
2019-03-20T15:40:59.250Z,57.30
2019-03-20T15:43:28.632Z,57.30
2019-03-20T15:45:57.964Z,57.30
2019-03-20T15:48:27.248Z,57.30
2019-03-20T15:50:56.836Z,57.40
2019-03-20T15:53:26.425Z,57.40
2019-03-20T15:55:55.645Z,57.40
2019-03-20T15:58:24.831Z,57.60
2019-03-20T16:07:52.611Z,58.40
2019-03-20T16:10:22.156Z,58.60
2019-03-20T16:12:51.682Z,58.90
2019-03-20T16:15:21.290Z,59.20
2019-03-20T16:17:50.563Z,59.40
2019-03-20T16:20:20.848Z,59.50
2019-03-20T16:22:52.131Z,59.60
2019-03-20T16:25:21.333Z,59.70
2019-03-20T16:27:50.627Z,59.90
2019-03-20T16:30:21.758Z,60.00
2019-03-20T16:32:51.076Z,60.00
2019-03-20T16:35:20.611Z,60.30
2019-03-20T16:37:49.817Z,60.60
2019-03-20T16:40:20.653Z,60.70
2019-03-20T16:42:49.847Z,60.80
2019-03-20T16:45:25.460Z,61.00
2019-03-20T16:47:55.176Z,61.00
2019-03-20T16:50:25.050Z,61.20
2019-03-20T16:52:54.687Z,61.30
2019-03-20T16:55:24.262Z,61.40
2019-03-20T16:57:53.526Z,61.60
2019-03-20T17:00:24.702Z,61.70
2019-03-20T17:02:54.151Z,61.90
2019-03-20T17:05:26.198Z,62.00
2019-03-20T17:08:14.492Z,62.20
2019-03-20T17:10:43.592Z,62.10
2019-03-20T17:13:13.180Z,62.00
2019-03-20T17:15:42.557Z,62.20
2019-03-20T17:18:11.933Z,63.00
2019-03-20T17:20:41.409Z,62.20
2019-03-20T17:23:11.171Z,62.10
2019-03-20T17:25:40.376Z,62.30
2019-03-20T17:28:09.470Z,61.90
2019-03-20T17:30:39.441Z,62.10
2019-03-20T17:33:08.787Z,62.20
2019-03-20T17:35:39.021Z,62.30
2019-03-20T17:38:09.717Z,62.10
2019-03-20T17:40:39.015Z,62.30
2019-03-20T17:43:08.527Z,62.30
2019-03-20T17:45:37.748Z,62.30
2019-03-20T17:48:07.550Z,62.30
2019-03-20T17:50:37.260Z,62.50
2019-03-20T17:53:06.564Z,62.60
2019-03-20T17:55:36.107Z,62.60
2019-03-20T17:58:05.601Z,62.60
2019-03-20T18:00:42.923Z,62.70
2019-03-20T18:03:12.244Z,62.60
2019-03-20T18:05:41.517Z,62.70
2019-03-20T18:08:12.008Z,62.90
2019-03-20T18:10:41.296Z,63.00
2019-03-20T18:13:11.550Z,63.10
2019-03-20T18:15:41.043Z,63.20
2019-03-20T18:18:10.436Z,63.50
2019-03-20T18:20:40.101Z,63.50
2019-03-20T18:23:09.680Z,63.90
2019-03-20T18:25:39.160Z,64.00
2019-03-20T18:28:08.667Z,65.40
2019-03-20T18:30:38.552Z,65.60
2019-03-20T18:33:07.824Z,65.50
2019-03-20T18:35:36.981Z,65.80
2019-03-20T18:38:07.504Z,66.10
2019-03-20T18:40:39.826Z,66.70
2019-03-20T18:43:09.206Z,69.00
2019-03-20T18:45:41.852Z,71.10
2019-03-20T18:48:11.198Z,73.70
2019-03-20T18:50:40.702Z,74.40
2019-03-20T18:53:10.040Z,75.50
2019-03-20T18:55:39.498Z,75.90
2019-03-20T18:58:09.274Z,76.20
2019-03-20T19:00:47.255Z,76.70
2019-03-20T19:03:17.594Z,76.40
2019-03-20T19:05:59.397Z,76.90
2019-03-20T19:08:29.569Z,76.90
2019-03-20T19:10:59.569Z,76.80
2019-03-20T19:13:35.070Z,76.50
2019-03-20T19:16:10.983Z,76.40
2019-03-20T19:18:48.616Z,76.30
2019-03-20T19:21:20.240Z,76.10
2019-03-20T19:23:57.594Z,75.80
2019-03-20T19:26:34.780Z,75.50
2019-03-20T19:29:04.649Z,75.70
2019-03-20T19:31:34.465Z,75.30
2019-03-20T19:34:04.431Z,74.90
2019-03-20T19:36:50.896Z,74.70
2019-03-20T19:39:21.652Z,74.90
2019-03-20T19:41:57.850Z,74.50
2019-03-20T19:44:39.260Z,74.50
2019-03-20T19:47:10.468Z,74.20
2019-03-20T19:49:52.307Z,74.00
2019-03-20T19:52:28.010Z,73.90
2019-03-20T19:55:08.207Z,73.60
2019-03-20T19:57:42.533Z,73.80
2019-03-20T20:00:41.952Z,73.90
2019-03-20T20:03:16.968Z,73.90
2019-03-20T20:05:48.842Z,73.90
2019-03-20T20:08:36.433Z,74.30
2019-03-20T20:11:07.658Z,74.20
2019-03-20T20:13:43.674Z,74.50
2019-03-20T20:16:17.335Z,74.40
2019-03-20T20:18:58.972Z,74.50
2019-03-20T20:21:34.597Z,75.00
2019-03-20T20:24:27.523Z,74.90
2019-03-20T20:27:00.209Z,75.00
2019-03-20T20:29:43.161Z,75.40
2019-03-20T20:32:30.535Z,75.70
2019-03-20T20:35:05.064Z,75.80
2019-03-20T20:37:39.692Z,75.90
2019-03-20T20:40:13.567Z,76.00
2019-03-20T20:42:55.151Z,76.10
2019-03-20T20:45:50.394Z,76.10
2019-03-20T20:48:23.688Z,76.20
2019-03-20T20:50:59.907Z,76.30
2019-03-20T20:53:33.474Z,76.50
2019-03-20T20:56:07.485Z,76.70
2019-03-20T20:58:41.585Z,76.90
2019-03-20T21:01:15.816Z,76.90
2019-03-20T21:03:47.069Z,77.00
2019-03-20T21:06:40.922Z,76.90
2019-03-20T21:09:23.119Z,77.10
2019-03-20T21:11:55.955Z,77.30
2019-03-20T21:14:35.478Z,77.30
2019-03-20T21:17:44.317Z,77.30
2019-03-20T21:39:30.848Z,80.10
2019-03-20T21:45:58.591Z,81.60
2019-03-20T21:48:33.409Z,81.80
2019-03-20T21:51:45.454Z,82.90
2019-03-20T21:54:53.653Z,83.60
2019-03-20T21:57:52.547Z,85.10
2019-03-20T22:00:50.220Z,86.90
2019-03-20T22:03:21.509Z,88.70
2019-03-20T22:06:49.895Z,90.40
2019-03-20T22:09:58.121Z,91.00
2019-03-20T22:12:45.680Z,92.10
2019-03-20T22:15:29.373Z,92.60
2019-03-20T22:18:13.879Z,93.10
2019-03-20T22:21:16.749Z,93.90
2019-03-20T22:24:30.132Z,94.80
2019-03-20T22:27:14.832Z,96.40
2019-03-20T22:29:44.544Z,98.10
2019-03-20T22:32:40.632Z,99.10
2019-03-20T22:35:39.999Z,99.50
2019-03-20T22:38:15.413Z,99.90
2019-03-20T22:41:31.024Z,99.90
2019-03-20T22:44:06.042Z,99.90
2019-03-20T22:47:19.152Z,99.90
2019-03-20T22:50:31.584Z,99.90
2019-03-20T22:53:48.221Z,99.90
2019-03-20T22:56:53.328Z,99.90
2019-03-20T22:59:23.171Z,99.90
2019-03-20T23:02:19.660Z,99.90
2019-03-20T23:04:55.406Z,99.90
2019-03-20T23:07:25.141Z,99.90
2019-03-20T23:09:58.720Z,99.90
2019-03-20T23:12:28.825Z,99.90
2019-03-20T23:14:58.975Z,99.90
2019-03-20T23:17:29.974Z,99.90
2019-03-20T23:20:00.359Z,99.90
2019-03-20T23:22:30.310Z,99.90
2019-03-20T23:24:59.954Z,99.90
2019-03-20T23:27:31.683Z,99.90
2019-03-20T23:30:02.319Z,99.90
2019-03-20T23:32:32.295Z,99.90
2019-03-20T23:35:01.952Z,99.90
2019-03-20T23:37:31.759Z,99.90
2019-03-20T23:40:03.660Z,99.90
2019-03-20T23:42:35.629Z,99.90
2019-03-20T23:45:05.959Z,99.90
2019-03-20T23:47:56.048Z,99.90
2019-03-20T23:50:26.154Z,99.90
2019-03-20T23:52:56.077Z,99.90
2019-03-20T23:55:25.878Z,99.90
2019-03-20T23:57:57.990Z,99.90
